createdAt,value
2023-02-08T00:00:45.569Z,230.30
2023-02-08T00:03:13.550Z,222.83
2023-02-08T00:05:41.330Z,219.23
2023-02-08T00:08:09.287Z,227.03
2023-02-08T00:10:37.096Z,225.53
2023-02-08T00:13:06.089Z,225.23
2023-02-08T00:15:33.710Z,227.97
2023-02-08T00:18:01.370Z,221.40
2023-02-08T00:20:29.092Z,230.07
2023-02-08T00:22:57.355Z,219.80
2023-02-08T00:25:24.995Z,220.33
2023-02-08T00:27:52.711Z,222.83
2023-02-08T00:30:21.916Z,227.60
2023-02-08T00:32:49.628Z,210.80
2023-02-08T00:35:17.365Z,217.33
2023-02-08T00:37:44.963Z,214.90
2023-02-08T00:40:13.333Z,216.47
2023-02-08T00:42:41.388Z,218.13
2023-02-08T00:45:10.120Z,214.77
2023-02-08T00:47:39.226Z,205.73
2023-02-08T00:50:08.017Z,209.33
2023-02-08T00:52:35.572Z,210.20
2023-02-08T00:55:03.243Z,207.13
2023-02-08T00:57:32.617Z,220.33
2023-02-08T01:00:00.288Z,220.20
2023-02-08T01:02:28.784Z,217.87
2023-02-08T01:04:57.769Z,216.30
2023-02-08T01:07:25.379Z,215.20
2023-02-08T01:09:53.287Z,234.77
2023-02-08T01:12:21.013Z,225.50
2023-02-08T01:14:48.704Z,234.80
2023-02-08T01:17:16.436Z,234.10
2023-02-08T01:19:44.049Z,236.90
2023-02-08T01:22:13.011Z,232.47
2023-02-08T01:24:40.714Z,228.13
2023-02-08T01:27:08.336Z,221.97
2023-02-08T01:29:36.187Z,216.90
2023-02-08T01:32:03.791Z,213.37
2023-02-08T01:34:31.429Z,211.10
2023-02-08T01:36:59.097Z,212.67
2023-02-08T01:39:28.064Z,203.93
2023-02-08T01:41:55.826Z,207.00
2023-02-08T01:45:02.918Z,197.10
2023-02-08T01:47:31.041Z,198.77
2023-02-08T01:49:58.803Z,204.40
2023-02-08T01:52:30.111Z,199.30
2023-02-08T01:55:03.357Z,200.13
2023-02-08T01:57:31.553Z,203.97
2023-02-08T02:00:02.496Z,200.43
2023-02-08T02:02:30.897Z,209.17
2023-02-08T02:04:58.524Z,223.93
2023-02-08T02:07:29.881Z,212.70
2023-02-08T02:10:08.908Z,211.60
2023-02-08T02:12:38.954Z,220.93
2023-02-08T02:15:07.055Z,222.80
2023-02-08T02:17:35.841Z,222.23
2023-02-08T02:20:10.035Z,233.17
2023-02-08T02:22:58.037Z,239.07
2023-02-08T02:25:53.120Z,231.03
2023-02-08T02:28:53.130Z,235.80
2023-02-08T02:31:52.766Z,226.40
2023-02-08T02:34:27.239Z,228.47
2023-02-08T02:37:02.354Z,232.07
2023-02-08T02:39:40.214Z,227.70
2023-02-08T02:42:32.760Z,223.37
2023-02-08T02:45:09.452Z,226.40
2023-02-08T02:47:45.323Z,223.03
2023-02-08T02:50:20.247Z,224.83
2023-02-08T02:52:57.041Z,220.30
2023-02-08T02:55:27.045Z,220.60
2023-02-08T02:57:59.373Z,229.30
2023-02-08T03:00:31.164Z,221.57
2023-02-08T03:03:00.196Z,216.63
2023-02-08T03:05:29.075Z,214.57
2023-02-08T03:08:11.960Z,205.60
2023-02-08T03:11:00.195Z,219.57
2023-02-08T03:13:37.970Z,214.43
2023-02-08T03:16:18.116Z,205.00
2023-02-08T03:19:00.753Z,212.63
2023-02-08T03:21:39.017Z,202.43
2023-02-08T03:24:20.792Z,207.57
2023-02-08T03:26:56.830Z,205.13
2023-02-08T03:29:32.232Z,210.73
2023-02-08T03:32:03.713Z,214.83
2023-02-08T03:34:42.854Z,204.90
2023-02-08T03:37:16.180Z,222.87
2023-02-08T03:39:45.576Z,213.87
2023-02-08T03:42:16.409Z,213.20
2023-02-08T03:44:52.266Z,215.20
2023-02-08T03:47:25.743Z,215.40
2023-02-08T03:49:58.019Z,211.80
2023-02-08T03:52:26.357Z,206.80
2023-02-08T03:54:58.131Z,211.63
2023-02-08T03:57:28.567Z,213.20
2023-02-08T03:59:59.599Z,209.90
2023-02-08T04:02:31.080Z,203.10
2023-02-08T04:05:01.814Z,204.10
2023-02-08T04:07:29.558Z,208.10
2023-02-08T04:09:58.042Z,203.87
2023-02-08T04:12:25.649Z,198.93
2023-02-08T04:14:53.281Z,208.20
2023-02-08T04:17:20.922Z,208.73
2023-02-08T04:19:48.615Z,204.03
2023-02-08T04:22:17.557Z,202.47
2023-02-08T04:24:45.290Z,206.07
2023-02-08T04:27:13.026Z,207.43
2023-02-08T04:29:41.643Z,205.40
2023-02-08T04:32:11.641Z,208.43
2023-02-08T04:34:39.328Z,214.80
2023-02-08T04:37:07.427Z,208.97
2023-02-08T04:39:36.521Z,205.10
2023-02-08T04:42:04.251Z,196.23
2023-02-08T04:44:32.858Z,190.20
2023-02-08T04:47:00.552Z,190.40
2023-02-08T04:49:28.150Z,193.90
2023-02-08T04:51:55.760Z,187.10
2023-02-08T04:54:23.435Z,190.67
2023-02-08T04:56:52.582Z,180.60
2023-02-08T04:59:20.264Z,204.53
2023-02-08T05:01:47.983Z,187.70
2023-02-08T05:04:15.642Z,186.37
2023-02-08T05:06:43.241Z,185.33
2023-02-08T05:09:11.160Z,187.03
2023-02-08T05:11:38.838Z,175.23
2023-02-08T05:14:07.789Z,174.20
2023-02-08T05:16:35.466Z,172.57
2023-02-08T05:19:03.144Z,179.77
2023-02-08T05:21:31.087Z,163.20
2023-02-08T05:23:58.696Z,169.70
2023-02-08T05:26:26.321Z,167.80
2023-02-08T05:28:53.985Z,166.37
2023-02-08T05:31:25.392Z,167.57
2023-02-08T05:33:53.947Z,170.03
2023-02-08T05:36:23.198Z,162.23
2023-02-08T05:38:51.202Z,164.70
2023-02-08T05:41:19.105Z,160.37
2023-02-08T05:43:46.832Z,163.90
2023-02-08T05:46:15.025Z,160.77
2023-02-08T05:48:44.545Z,156.90
2023-02-08T05:51:12.284Z,161.83
2023-02-08T05:53:40.100Z,154.97
2023-02-08T05:56:08.285Z,156.03
2023-02-08T05:58:36.185Z,152.27
2023-02-08T06:01:09.140Z,154.97
2023-02-08T06:03:36.827Z,153.53
2023-02-08T06:06:06.129Z,151.63
2023-02-08T06:08:34.182Z,146.93
2023-02-08T06:11:01.768Z,142.93
2023-02-08T06:13:30.117Z,150.73
2023-02-08T06:15:57.758Z,146.33
2023-02-08T06:18:25.364Z,152.13
2023-02-08T06:20:53.694Z,145.83
2023-02-08T06:23:23.169Z,150.63
2023-02-08T06:25:50.869Z,148.70
2023-02-08T06:28:18.542Z,142.30
2023-02-08T06:30:46.360Z,146.57
2023-02-08T06:33:15.775Z,147.73
2023-02-08T06:35:45.958Z,145.83
2023-02-08T06:38:13.651Z,146.43
2023-02-08T06:40:42.830Z,143.83
2023-02-08T06:43:10.626Z,145.67
2023-02-08T06:45:38.296Z,142.93
2023-02-08T06:48:06.383Z,140.50
2023-02-08T06:50:34.173Z,143.70
2023-02-08T06:53:01.814Z,139.40
2023-02-08T06:55:29.421Z,138.60
2023-02-08T06:57:58.449Z,137.30
2023-02-08T07:00:26.074Z,141.33
2023-02-08T07:02:53.621Z,142.40
2023-02-08T07:05:21.319Z,141.17
2023-02-08T07:07:49.520Z,138.57
2023-02-08T07:10:17.528Z,137.63
2023-02-08T07:12:45.162Z,144.47
2023-02-08T07:15:14.156Z,142.07
2023-02-08T07:17:41.940Z,137.27
2023-02-08T07:20:11.349Z,144.87
2023-02-08T07:22:39.563Z,137.97
2023-02-08T07:25:08.691Z,137.03
2023-02-08T07:27:36.640Z,132.80
2023-02-08T07:30:04.972Z,137.90
2023-02-08T07:32:34.896Z,134.80
2023-02-08T07:35:02.817Z,136.40
2023-02-08T07:37:31.694Z,132.73
2023-02-08T07:39:59.438Z,130.23
2023-02-08T07:42:27.149Z,135.40
2023-02-08T07:44:54.869Z,137.20
2023-02-08T07:47:22.520Z,144.20
2023-02-08T07:49:51.478Z,140.20
2023-02-08T07:52:19.045Z,141.20
2023-02-08T07:54:46.676Z,147.87
2023-02-08T07:57:20.293Z,151.40
2023-02-08T07:59:48.110Z,155.43
2023-02-08T08:02:16.496Z,149.33
2023-02-08T08:04:44.150Z,147.17
2023-02-08T08:07:13.076Z,147.50
2023-02-08T08:09:40.804Z,154.47
2023-02-08T08:12:08.457Z,151.67
2023-02-08T08:14:36.115Z,153.97
2023-02-08T08:17:03.715Z,155.80
2023-02-08T08:19:31.304Z,164.40
2023-02-08T08:21:59.257Z,162.97
2023-02-08T08:24:28.504Z,165.60
2023-02-08T08:26:56.150Z,168.60
2023-02-08T08:29:23.747Z,163.97
2023-02-08T08:31:52.082Z,165.70
2023-02-08T08:34:19.701Z,169.10
2023-02-08T08:36:47.343Z,170.10
2023-02-08T08:39:15.231Z,166.47
2023-02-08T08:41:44.197Z,175.70
2023-02-08T08:44:11.880Z,176.30
2023-02-08T08:46:40.173Z,192.93
2023-02-08T08:49:07.867Z,180.43
2023-02-08T08:51:36.126Z,182.43
2023-02-08T08:54:04.071Z,180.17
2023-02-08T08:56:32.792Z,184.57
2023-02-08T08:59:01.860Z,178.80
2023-02-08T09:01:29.701Z,173.40
2023-02-08T09:03:57.464Z,174.60
2023-02-08T09:06:25.041Z,181.17
2023-02-08T09:08:52.738Z,186.97
2023-02-08T09:11:20.412Z,181.97
2023-02-08T09:13:51.297Z,183.60
2023-02-08T09:16:20.841Z,185.70
2023-02-08T09:18:48.534Z,187.53
2023-02-08T09:21:18.170Z,180.20
2023-02-08T09:23:47.401Z,193.37
2023-02-08T09:26:17.772Z,192.13
2023-02-08T09:28:45.892Z,183.80
2023-02-08T09:31:19.687Z,175.30
2023-02-08T09:33:49.000Z,174.33
2023-02-08T09:36:17.953Z,175.17
2023-02-08T09:38:46.346Z,189.63
2023-02-08T09:41:25.930Z,180.63
2023-02-08T09:44:04.714Z,166.37
2023-02-08T09:46:38.462Z,163.13
2023-02-08T09:49:17.402Z,170.67
2023-02-08T09:51:48.608Z,165.13
2023-02-08T09:54:21.782Z,161.23
2023-02-08T09:56:51.468Z,147.50
2023-02-08T09:59:23.835Z,147.47
2023-02-08T10:01:54.867Z,141.83
2023-02-08T10:04:31.407Z,145.83
2023-02-08T10:06:59.137Z,146.47
2023-02-08T10:09:28.228Z,134.33
2023-02-08T10:12:07.737Z,129.70
2023-02-08T10:14:46.816Z,131.63
2023-02-08T10:17:41.487Z,125.77
2023-02-08T10:20:20.894Z,122.17
2023-02-08T10:23:01.228Z,126.03
2023-02-08T10:25:46.316Z,123.63
2023-02-08T10:28:29.256Z,112.80
2023-02-08T10:31:03.545Z,102.63
2023-02-08T10:33:37.280Z,95.60
2023-02-08T10:36:15.386Z,98.33
2023-02-08T10:38:46.775Z,86.57
2023-02-08T10:41:19.482Z,81.10
2023-02-08T10:43:51.014Z,80.10
2023-02-08T10:46:27.001Z,82.97
2023-02-08T10:49:04.936Z,72.30
2023-02-08T10:51:34.361Z,74.03
2023-02-08T10:54:02.012Z,73.50
2023-02-08T10:56:48.226Z,70.67
2023-02-08T10:59:20.207Z,72.97
2023-02-08T11:01:49.436Z,69.53
2023-02-08T11:04:17.939Z,63.47
2023-02-08T11:06:49.575Z,71.47
2023-02-08T11:09:29.085Z,76.07
2023-02-08T11:11:58.556Z,75.37
2023-02-08T11:14:44.636Z,78.60
2023-02-08T11:17:27.076Z,79.50
2023-02-08T11:19:54.962Z,81.50
2023-02-08T11:22:27.563Z,77.90
2023-02-08T11:24:58.543Z,79.20
2023-02-08T11:27:34.743Z,81.23
2023-02-08T11:30:22.056Z,79.87
2023-02-08T11:33:11.079Z,75.73
2023-02-08T11:35:38.759Z,73.33
2023-02-08T11:38:17.206Z,72.63
2023-02-08T11:40:46.573Z,69.50
2023-02-08T11:43:22.488Z,63.63
2023-02-08T11:45:50.780Z,67.97
2023-02-08T11:48:24.258Z,65.97
2023-02-08T11:50:58.828Z,61.27
2023-02-08T11:53:32.243Z,54.50
2023-02-08T11:56:05.879Z,54.20
2023-02-08T11:58:33.969Z,52.10
2023-02-08T12:01:04.523Z,51.40
2023-02-08T12:03:37.322Z,48.10
2023-02-08T12:06:21.302Z,47.97
2023-02-08T12:09:01.852Z,43.57
2023-02-08T12:11:37.751Z,40.40
2023-02-08T12:14:26.912Z,38.30
2023-02-08T12:17:20.462Z,36.87
2023-02-08T12:20:09.015Z,35.90
2023-02-08T12:22:41.898Z,36.90
2023-02-08T12:25:25.717Z,35.87
2023-02-08T12:28:01.329Z,36.20
2023-02-08T12:30:34.741Z,35.70
2023-02-08T12:33:25.143Z,36.90
2023-02-08T12:36:31.209Z,33.30
2023-02-08T12:39:29.137Z,31.93
2023-02-08T12:42:33.325Z,33.37
2023-02-08T12:45:27.495Z,31.40
2023-02-08T12:48:07.301Z,31.50
2023-02-08T12:50:41.095Z,29.33
2023-02-08T12:53:18.461Z,29.70
2023-02-08T12:55:49.826Z,28.47
2023-02-08T12:58:27.844Z,30.07
2023-02-08T13:00:57.546Z,27.00
2023-02-08T13:03:35.876Z,25.80
2023-02-08T13:06:07.444Z,26.27
2023-02-08T13:08:41.767Z,26.60
2023-02-08T13:11:20.118Z,27.70
2023-02-08T13:13:57.749Z,29.20
2023-02-08T13:16:30.326Z,28.90
2023-02-08T13:19:12.549Z,29.63
2023-02-08T13:21:43.721Z,28.30
2023-02-08T13:24:19.939Z,26.90
2023-02-08T13:26:47.619Z,27.50
2023-02-08T13:29:20.429Z,26.40
2023-02-08T13:31:52.323Z,26.13
2023-02-08T13:34:29.096Z,23.90
2023-02-08T13:37:00.419Z,24.87
2023-02-08T13:39:36.225Z,21.87
2023-02-08T13:42:06.673Z,20.47
2023-02-08T13:44:38.388Z,18.83
2023-02-08T13:47:07.698Z,18.50
2023-02-08T13:50:00.815Z,19.73
2023-02-08T13:52:49.102Z,19.53
2023-02-08T13:55:53.313Z,17.50
2023-02-08T13:59:05.728Z,20.03
2023-02-08T14:01:36.616Z,20.13
2023-02-08T14:04:34.961Z,18.03
2023-02-08T14:07:16.810Z,18.73
2023-02-08T14:10:11.231Z,19.10
2023-02-08T14:12:43.994Z,18.00
2023-02-08T14:15:30.802Z,18.67
2023-02-08T14:18:01.602Z,19.80
2023-02-08T14:20:41.014Z,18.97
2023-02-08T14:23:23.067Z,18.70
2023-02-08T14:25:52.465Z,18.47
2023-02-08T14:28:27.110Z,18.40
2023-02-08T14:30:58.729Z,17.60
2023-02-08T14:33:31.762Z,17.30
2023-02-08T14:36:02.773Z,17.50
2023-02-08T14:38:53.027Z,18.60
2023-02-08T14:41:43.643Z,17.40
2023-02-08T14:44:55.952Z,18.23
2023-02-08T14:47:58.932Z,17.90
2023-02-08T14:50:35.018Z,16.50
2023-02-08T14:53:07.707Z,17.63
2023-02-08T14:55:44.056Z,18.27
2023-02-08T14:58:16.211Z,17.83
2023-02-08T15:00:45.543Z,21.90
2023-02-08T15:03:17.411Z,18.10
2023-02-08T15:06:03.553Z,16.93
2023-02-08T15:08:31.384Z,17.40
2023-02-08T15:10:59.144Z,16.20
2023-02-08T15:13:26.874Z,15.13
2023-02-08T15:15:56.894Z,15.80
2023-02-08T15:18:29.001Z,16.33
2023-02-08T15:21:04.362Z,16.70
2023-02-08T15:23:32.722Z,15.63
2023-02-08T15:26:02.731Z,16.37
2023-02-08T15:28:32.648Z,16.33
2023-02-08T15:31:03.401Z,15.83
2023-02-08T15:33:31.970Z,16.13
2023-02-08T15:36:06.192Z,16.13
2023-02-08T15:38:38.380Z,17.47
2023-02-08T15:41:08.162Z,17.20
2023-02-08T15:43:37.239Z,16.40
2023-02-08T15:46:07.743Z,16.60
2023-02-08T15:48:39.396Z,16.13
2023-02-08T15:51:11.362Z,16.23
2023-02-08T15:53:41.583Z,16.53
2023-02-08T15:56:12.386Z,15.30
2023-02-08T15:58:45.150Z,15.57
2023-02-08T16:01:19.694Z,16.43
2023-02-08T16:03:50.331Z,16.60
2023-02-08T16:06:24.467Z,14.43
2023-02-08T16:08:55.207Z,15.70
2023-02-08T16:11:27.148Z,17.27
2023-02-08T16:13:58.186Z,17.10
2023-02-08T16:16:37.518Z,17.20
2023-02-08T16:19:07.721Z,15.83
2023-02-08T16:21:39.283Z,16.87
2023-02-08T16:24:20.394Z,16.17
2023-02-08T16:26:55.629Z,17.77
2023-02-08T16:29:27.272Z,16.23
2023-02-08T16:32:03.326Z,16.57
2023-02-08T16:34:33.851Z,16.07
2023-02-08T16:37:04.653Z,15.73
2023-02-08T16:39:42.247Z,16.13
2023-02-08T16:42:23.846Z,17.60
2023-02-08T16:45:17.447Z,18.50
2023-02-08T16:47:47.752Z,18.60
2023-02-08T16:50:18.356Z,17.67
2023-02-08T16:52:49.495Z,18.60
2023-02-08T16:55:20.437Z,22.40
2023-02-08T16:57:49.771Z,26.30
2023-02-08T17:00:23.595Z,25.63
2023-02-08T17:02:51.689Z,23.53
2023-02-08T17:05:20.868Z,22.07
2023-02-08T17:07:50.445Z,19.53
2023-02-08T17:10:21.978Z,22.97
2023-02-08T17:12:49.627Z,20.30
2023-02-08T17:15:17.671Z,21.93
2023-02-08T17:17:45.269Z,20.00
2023-02-08T17:20:20.978Z,21.53
2023-02-08T17:22:50.575Z,22.07
2023-02-08T17:25:19.884Z,21.07
2023-02-08T17:27:50.824Z,22.10
2023-02-08T17:30:22.741Z,20.80
2023-02-08T17:32:50.764Z,20.67
2023-02-08T17:35:19.002Z,20.57
2023-02-08T17:37:47.568Z,21.93
2023-02-08T17:40:17.691Z,18.67
2023-02-08T17:42:47.586Z,19.77
2023-02-08T17:45:15.670Z,20.90
2023-02-08T17:47:43.342Z,22.40
2023-02-08T17:50:12.530Z,20.43
2023-02-08T17:52:41.691Z,21.83
2023-02-08T17:55:13.409Z,21.10
2023-02-08T17:57:43.272Z,21.07
2023-02-08T18:00:13.827Z,21.37
2023-02-08T18:02:44.580Z,19.57
2023-02-08T18:05:12.315Z,19.60
2023-02-08T18:07:41.369Z,19.70
2023-02-08T18:10:10.977Z,18.93
2023-02-08T18:12:39.173Z,20.43
2023-02-08T18:15:11.986Z,20.73
2023-02-08T18:17:40.035Z,21.03
2023-02-08T18:20:09.073Z,21.83
2023-02-08T18:22:38.098Z,19.93
2023-02-08T18:25:06.565Z,20.53
2023-02-08T18:27:34.537Z,20.10
2023-02-08T18:30:02.179Z,19.20
2023-02-08T18:32:31.197Z,18.50
2023-02-08T18:35:00.166Z,22.20
2023-02-08T18:37:28.829Z,19.87
2023-02-08T18:39:56.617Z,23.17
2023-02-08T18:42:24.262Z,20.40
2023-02-08T18:44:51.835Z,19.70
2023-02-08T18:47:19.477Z,20.80
2023-02-08T18:49:48.436Z,19.50
2023-02-08T18:52:16.122Z,19.10
2023-02-08T18:54:43.757Z,20.07
2023-02-08T18:57:11.395Z,19.20
2023-02-08T18:59:39.577Z,19.57
2023-02-08T19:02:08.699Z,20.33
2023-02-08T19:04:38.668Z,20.10
2023-02-08T19:07:07.730Z,20.43
2023-02-08T19:09:35.798Z,20.53
2023-02-08T19:12:03.859Z,20.33
2023-02-08T19:14:31.503Z,20.23
2023-02-08T19:16:59.125Z,20.53
2023-02-08T19:19:26.818Z,22.67
2023-02-08T19:21:54.387Z,19.87
2023-02-08T19:24:23.347Z,19.87
2023-02-08T19:26:50.981Z,20.80
2023-02-08T19:29:21.784Z,17.40
2023-02-08T19:31:50.506Z,21.37
2023-02-08T19:34:19.174Z,21.20
2023-02-08T19:36:51.547Z,20.10
2023-02-08T19:39:21.178Z,21.30
2023-02-08T19:41:52.618Z,20.80
2023-02-08T19:44:21.732Z,20.80
2023-02-08T19:46:51.363Z,22.10
2023-02-08T19:49:19.741Z,21.87
2023-02-08T19:51:47.419Z,21.67
2023-02-08T19:54:17.064Z,22.07
2023-02-08T19:56:45.079Z,21.37
2023-02-08T19:59:19.920Z,22.10
2023-02-08T20:01:48.011Z,21.83
2023-02-08T20:04:16.153Z,21.50
2023-02-08T20:06:44.961Z,21.03
2023-02-08T20:09:16.273Z,23.23
2023-02-08T20:11:56.363Z,23.00
2023-02-08T20:14:26.545Z,23.40
2023-02-08T20:16:54.690Z,22.43
2023-02-08T20:19:22.339Z,23.40
2023-02-08T20:21:50.177Z,25.10
2023-02-08T20:24:18.561Z,25.60
2023-02-08T20:26:48.024Z,26.20
2023-02-08T20:29:16.673Z,26.63
2023-02-08T20:31:48.064Z,27.90
2023-02-08T20:34:18.619Z,29.17
2023-02-08T20:37:04.448Z,28.07
2023-02-08T20:39:34.087Z,29.47
2023-02-08T20:42:01.988Z,29.40
2023-02-08T20:44:30.805Z,29.47
2023-02-08T20:46:59.753Z,31.00
2023-02-08T20:49:27.414Z,32.27
2023-02-08T20:51:55.599Z,30.53
2023-02-08T20:54:24.919Z,32.17
2023-02-08T20:56:53.965Z,33.67
2023-02-08T20:59:22.317Z,32.67
2023-02-08T21:01:50.151Z,34.80
2023-02-08T21:04:23.120Z,32.53
2023-02-08T21:06:51.609Z,35.03
2023-02-08T21:09:21.027Z,32.40
2023-02-08T21:11:48.787Z,33.60
2023-02-08T21:14:20.597Z,32.70
2023-02-08T21:16:51.213Z,36.17
2023-02-08T21:19:21.395Z,33.07
2023-02-08T21:21:51.371Z,35.17
2023-02-08T21:24:18.968Z,35.47
2023-02-08T21:26:46.891Z,35.30
2023-02-08T21:29:14.471Z,34.50
2023-02-08T21:31:42.254Z,36.90
2023-02-08T21:34:09.995Z,34.10
2023-02-08T21:36:38.956Z,33.10
2023-02-08T21:39:06.706Z,34.30
2023-02-08T21:41:35.064Z,31.67
2023-02-08T21:44:04.703Z,33.27
2023-02-08T21:46:33.511Z,34.87
2023-02-08T21:49:19.500Z,33.23
2023-02-08T21:52:05.748Z,35.77
2023-02-08T21:54:44.470Z,33.10
2023-02-08T21:57:15.472Z,34.90
2023-02-08T21:59:43.521Z,34.70
2023-02-08T22:02:14.538Z,36.70
2023-02-08T22:04:46.631Z,34.20
2023-02-08T22:07:16.019Z,35.73
2023-02-08T22:09:43.614Z,36.30
2023-02-08T22:12:15.433Z,35.83
2023-02-08T22:14:43.329Z,36.70
2023-02-08T22:17:11.413Z,36.23
2023-02-08T22:19:39.269Z,34.10
2023-02-08T22:22:07.220Z,35.07
2023-02-08T22:24:37.925Z,34.77
2023-02-08T22:27:05.775Z,34.40
2023-02-08T22:29:33.987Z,36.07
2023-02-08T22:32:02.069Z,36.60
2023-02-08T22:34:29.867Z,36.60
2023-02-08T22:36:57.872Z,36.27
2023-02-08T22:39:25.619Z,37.50
2023-02-08T22:41:54.610Z,38.10
2023-02-08T22:44:22.340Z,37.20
2023-02-08T22:46:49.990Z,36.27
2023-02-08T22:49:17.672Z,37.67
2023-02-08T22:51:45.317Z,36.93
2023-02-08T22:54:12.907Z,37.77
2023-02-08T22:56:40.498Z,37.97
2023-02-08T22:59:09.514Z,38.47
2023-02-08T23:01:38.748Z,35.10
2023-02-08T23:04:06.613Z,37.70
2023-02-08T23:06:35.496Z,37.47
2023-02-08T23:09:03.684Z,36.43
2023-02-08T23:11:31.331Z,39.47
2023-02-08T23:13:59.177Z,38.27
2023-02-08T23:16:28.221Z,39.03
2023-02-08T23:18:55.828Z,40.27
2023-02-08T23:21:23.437Z,36.77
2023-02-08T23:23:51.141Z,38.57
2023-02-08T23:26:20.785Z,37.80
2023-02-08T23:28:50.717Z,39.80
2023-02-08T23:31:19.336Z,38.50
2023-02-08T23:33:48.896Z,39.00
2023-02-08T23:36:18.727Z,39.90
2023-02-08T23:38:46.395Z,37.63
2023-02-08T23:41:16.674Z,39.43
2023-02-08T23:43:44.676Z,39.37
2023-02-08T23:46:16.048Z,38.47
2023-02-08T23:48:44.214Z,39.63
2023-02-08T23:51:13.181Z,37.53
2023-02-08T23:53:41.438Z,38.37
2023-02-08T23:56:14.868Z,38.40
2023-02-08T23:58:43.290Z,40.43
